Time;durP1;ratioP1;P1;durP2;ratioP2;P2;SDS_P1;SDS_P2;PMS_P1;PMS_P2;Temp;Humidity;BMP_temperature;BMP_pressure;BME280_temperature;BME280_humidity;BME280_pressure;Samples;Min_cycle;Max_cycle;Signal;HPM_P1;HPM_P2
2022/01/09 00:02:04;;;;;;;7.65;6.78;;;;;;;;;;5003325;28;20030;-76
2022/01/09 00:04:30;;;;;;;8.93;7.28;;;;;;;;;;5005857;28;20038;-77
2022/01/09 00:06:56;;;;;;;8.45;7.15;;;;;;;;;;5005453;28;20026;-77
2022/01/09 00:09:22;;;;;;;8.85;7.00;;;;;;;;;;5007148;28;20398;-77
2022/01/09 00:11:48;;;;;;;7.82;7.03;;;;;;;;;;5006176;28;20034;-77
2022/01/09 00:14:13;;;;;;;9.60;7.68;;;;;;;;;;4998464;28;20543;-77
2022/01/09 00:16:39;;;;;;;8.82;7.25;;;;;;;;;;4987283;28;20048;-76
2022/01/09 00:19:05;;;;;;;8.43;7.22;;;;;;;;;;5003820;28;20048;-75
2022/01/09 00:21:31;;;;;;;8.65;7.70;;;;;;;;;;5005177;28;20032;-76
2022/01/09 00:23:57;;;;;;;9.68;7.80;;;;;;;;;;4992748;28;20126;-75
2022/01/09 00:26:23;;;;;;;9.10;7.90;;;;;;;;;;5003710;28;20472;-76
2022/01/09 00:28:49;;;;;;;9.38;7.93;;;;;;;;;;5001994;28;20054;-76
2022/01/09 00:31:15;;;;;;;10.02;7.75;;;;;;;;;;5003754;28;20468;-76
2022/01/09 00:33:41;;;;;;;11.23;8.23;;;;;;;;;;5002999;28;20026;-76
2022/01/09 00:36:07;;;;;;;10.02;8.30;;;;;;;;;;5003545;28;20048;-76
2022/01/09 00:38:33;;;;;;;11.13;8.80;;;;;;;;;;5006620;28;20501;-76
2022/01/09 00:40:59;;;;;;;9.60;8.20;;;;;;;;;;5006720;28;20033;-76
2022/01/09 00:43:25;;;;;;;11.43;7.40;;;;;;;;;;4997102;28;20042;-76
2022/01/09 00:45:51;;;;;;;5.97;4.93;;;;;;;;;;4998317;28;20026;-74
2022/01/09 00:48:18;;;;;;;7.38;6.00;;;;;;;;;;4994267;28;20461;-75
2022/01/09 00:50:44;;;;;;;9.07;6.35;;;;;;;;;;5000779;28;20034;-74
2022/01/09 00:53:10;;;;;;;7.82;6.63;;;;;;;;;;5007510;28;20391;-74
2022/01/09 00:55:36;;;;;;;7.47;6.25;;;;;;;;;;5001383;28;20030;-74
2022/01/09 00:58:02;;;;;;;5.45;4.95;;;;;;;;;;5009801;28;20038;-75
2022/01/09 01:00:28;;;;;;;6.80;5.70;;;;;;;;;;5002764;28;20034;-75
2022/01/09 01:02:54;;;;;;;7.38;6.03;;;;;;;;;;4999147;28;20042;-74
2022/01/09 01:05:20;;;;;;;7.57;5.43;;;;;;;;;;5002668;28;20073;-74
2022/01/09 01:07:46;;;;;;;7.88;5.95;;;;;;;;;;5003667;28;20066;-74
2022/01/09 01:10:13;;;;;;;8.93;6.60;;;;;;;;;;5001370;28;20022;-75
2022/01/09 01:12:39;;;;;;;9.18;6.97;;;;;;;;;;5005463;28;20036;-75
2022/01/09 01:15:05;;;;;;;7.47;6.68;;;;;;;;;;4984922;28;20030;-75
2022/01/09 01:17:33;;;;;;;6.85;6.15;;;;;;;;;;5010520;28;20061;-75
2022/01/09 01:19:59;;;;;;;7.93;6.78;;;;;;;;;;5001056;28;20454;-75
2022/01/09 01:22:26;;;;;;;9.63;7.28;;;;;;;;;;4989734;28;20034;-74
2022/01/09 01:24:52;;;;;;;9.65;6.50;;;;;;;;;;5003153;28;20030;-77
2022/01/09 01:27:19;;;;;;;8.45;7.35;;;;;;;;;;5006979;28;20049;-75
2022/01/09 01:29:46;;;;;;;9.30;7.25;;;;;;;;;;5000277;28;20078;-75
2022/01/09 01:32:12;;;;;;;8.70;7.45;;;;;;;;;;5004275;28;20438;-75
2022/01/09 01:34:38;;;;;;;9.98;6.93;;;;;;;;;;4998304;28;20064;-75
2022/01/09 01:37:04;;;;;;;10.13;7.50;;;;;;;;;;4979505;28;20141;-75
2022/01/09 01:39:30;;;;;;;10.35;7.43;;;;;;;;;;5006149;28;20030;-75
2022/01/09 01:41:56;;;;;;;7.95;7.10;;;;;;;;;;5007070;28;20052;-75
2022/01/09 01:44:22;;;;;;;10.77;7.13;;;;;;;;;;4995545;28;20043;-75
2022/01/09 01:46:48;;;;;;;11.68;7.72;;;;;;;;;;4998289;28;20033;-75
2022/01/09 01:49:14;;;;;;;14.32;6.93;;;;;;;;;;4997890;28;20416;-75
2022/01/09 01:51:44;;;;;;;13.10;6.25;;;;;;;;;;4996343;28;20038;-75
2022/01/09 01:54:12;;;;;;;9.75;6.35;;;;;;;;;;4995208;28;20447;-75
2022/01/09 01:56:38;;;;;;;12.18;6.57;;;;;;;;;;5001432;28;20373;-75
2022/01/09 01:59:04;;;;;;;18.33;5.38;;;;;;;;;;5008852;28;20042;-76
2022/01/09 02:01:30;;;;;;;18.77;5.47;;;;;;;;;;5002712;28;20034;-76
2022/01/09 02:03:56;;;;;;;23.48;5.07;;;;;;;;;;4999596;28;20037;-76
2022/01/09 02:06:22;;;;;;;20.38;4.70;;;;;;;;;;5000973;28;20038;-76
2022/01/09 02:08:48;;;;;;;32.58;4.60;;;;;;;;;;4994828;28;20030;-76
2022/01/09 02:11:14;;;;;;;22.70;4.25;;;;;;;;;;5000203;28;20041;-76
2022/01/09 02:13:41;;;;;;;25.17;4.90;;;;;;;;;;5007769;28;20028;-75
2022/01/09 02:16:16;;;;;;;38.65;4.97;;;;;;;;;;5000978;28;20062;-76
2022/01/09 02:18:43;;;;;;;34.95;4.60;;;;;;;;;;5000808;28;20029;-76
2022/01/09 02:21:10;;;;;;;28.10;3.75;;;;;;;;;;5000997;28;20050;-75
2022/01/09 02:23:38;;;;;;;34.03;5.07;;;;;;;;;;4997228;28;20033;-75
2022/01/09 02:26:04;;;;;;;37.15;4.30;;;;;;;;;;5001478;28;20156;-75
2022/01/09 02:28:30;;;;;;;37.53;4.45;;;;;;;;;;5001727;28;20546;-74
2022/01/09 02:30:56;;;;;;;36.75;4.60;;;;;;;;;;5001081;28;20360;-74
2022/01/09 02:33:22;;;;;;;42.35;3.63;;;;;;;;;;4995202;28;20033;-74
2022/01/09 02:35:50;;;;;;;41.53;5.50;;;;;;;;;;5000509;28;20042;-74
2022/01/09 02:38:16;;;;;;;37.08;4.80;;;;;;;;;;4985587;28;20038;-74
2022/01/09 02:40:42;;;;;;;36.08;4.82;;;;;;;;;;5002285;28;20045;-74
2022/01/09 02:43:08;;;;;;;50.90;5.15;;;;;;;;;;4975641;28;20042;-74
2022/01/09 02:45:34;;;;;;;59.20;5.20;;;;;;;;;;4983663;28;20034;-74
2022/01/09 02:48:02;;;;;;;50.42;6.38;;;;;;;;;;5009971;28;20068;-74
2022/01/09 02:50:34;;;;;;;42.85;5.80;;;;;;;;;;5000086;28;20017;-75
2022/01/09 02:53:12;;;;;;;60.97;7.53;;;;;;;;;;4988866;28;20040;-75
2022/01/09 02:55:38;;;;;;;56.92;7.47;;;;;;;;;;4986377;28;20092;-74
2022/01/09 02:58:04;;;;;;;64.70;6.60;;;;;;;;;;5008356;28;20038;-74
2022/01/09 03:00:31;;;;;;;69.25;6.35;;;;;;;;;;4984096;28;20044;-74
2022/01/09 03:02:58;;;;;;;65.93;7.60;;;;;;;;;;4978234;28;20479;-74
2022/01/09 03:05:24;;;;;;;66.40;8.60;;;;;;;;;;4983001;28;20045;-74
2022/01/09 03:07:50;;;;;;;56.78;7.15;;;;;;;;;;4982778;28;20072;-74
2022/01/09 03:10:17;;;;;;;55.63;6.80;;;;;;;;;;5000183;28;20027;-74
2022/01/09 03:12:44;;;;;;;67.93;7.13;;;;;;;;;;5005883;28;20470;-74
2022/01/09 03:15:10;;;;;;;54.03;6.30;;;;;;;;;;4989475;28;20061;-75
2022/01/09 03:17:36;;;;;;;68.45;6.43;;;;;;;;;;4998842;28;20065;-75
2022/01/09 03:20:04;;;;;;;82.28;9.93;;;;;;;;;;5005562;28;20037;-76
2022/01/09 03:22:30;;;;;;;66.78;7.53;;;;;;;;;;5008086;28;20475;-75
2022/01/09 03:24:56;;;;;;;52.40;5.80;;;;;;;;;;4990411;28;20069;-75
2022/01/09 03:27:22;;;;;;;63.45;7.40;;;;;;;;;;4989433;28;20029;-75
2022/01/09 03:29:48;;;;;;;56.75;5.72;;;;;;;;;;5003002;28;20113;-75
2022/01/09 03:32:14;;;;;;;42.75;5.22;;;;;;;;;;4989778;28;20038;-75
2022/01/09 03:34:41;;;;;;;54.85;7.03;;;;;;;;;;4991465;28;20096;-75
2022/01/09 03:37:07;;;;;;;48.00;6.95;;;;;;;;;;5006128;28;20041;-75
2022/01/09 03:39:33;;;;;;;49.30;6.75;;;;;;;;;;5004452;28;20034;-75
2022/01/09 03:41:59;;;;;;;55.70;5.38;;;;;;;;;;5007891;28;20080;-75
2022/01/09 03:44:26;;;;;;;42.15;5.75;;;;;;;;;;4981207;28;20037;-75
2022/01/09 03:46:52;;;;;;;41.80;5.88;;;;;;;;;;5003906;28;20073;-75
2022/01/09 03:49:18;;;;;;;46.80;5.10;;;;;;;;;;4989138;28;20344;-75
2022/01/09 03:51:47;;;;;;;49.97;5.78;;;;;;;;;;4989897;28;20042;-75
2022/01/09 03:54:13;;;;;;;39.53;4.72;;;;;;;;;;4988952;28;20044;-75
2022/01/09 03:56:39;;;;;;;46.60;5.05;;;;;;;;;;4987754;28;20415;-75
2022/01/09 03:59:05;;;;;;;50.40;6.30;;;;;;;;;;4998961;28;20034;-74
2022/01/09 04:01:31;;;;;;;45.03;6.35;;;;;;;;;;5005224;28;20060;-74
2022/01/09 04:03:57;;;;;;;52.45;5.28;;;;;;;;;;5002114;28;20041;-74
2022/01/09 04:06:24;;;;;;;43.38;4.78;;;;;;;;;;4973768;28;20034;-74
2022/01/09 04:08:52;;;;;;;48.25;5.85;;;;;;;;;;5002002;28;20566;-74
2022/01/09 04:11:22;;;;;;;43.63;6.18;;;;;;;;;;5003139;28;20037;-74
2022/01/09 04:13:48;;;;;;;43.30;5.43;;;;;;;;;;5005763;28;20120;-74
2022/01/09 04:16:14;;;;;;;42.58;4.88;;;;;;;;;;5000551;28;20492;-76
2022/01/09 04:18:40;;;;;;;41.08;5.50;;;;;;;;;;5008724;28;20034;-75
2022/01/09 04:21:06;;;;;;;36.00;5.35;;;;;;;;;;5002521;28;20043;-74
2022/01/09 04:23:32;;;;;;;36.45;4.57;;;;;;;;;;5008919;28;20052;-73
2022/01/09 04:25:58;;;;;;;42.92;4.93;;;;;;;;;;4998538;28;20096;-72
2022/01/09 04:28:24;;;;;;;28.98;3.53;;;;;;;;;;5002383;28;20080;-71
2022/01/09 04:30:50;;;;;;;39.92;3.78;;;;;;;;;;5007255;28;20033;-73
2022/01/09 04:33:16;;;;;;;44.65;6.20;;;;;;;;;;4988195;28;20045;-71
2022/01/09 04:35:43;;;;;;;37.90;3.55;;;;;;;;;;5005309;28;20483;-73
2022/01/09 04:38:09;;;;;;;35.40;4.15;;;;;;;;;;5005306;28;20494;-73
2022/01/09 04:40:35;;;;;;;37.38;5.07;;;;;;;;;;5004792;28;20034;-74
2022/01/09 04:43:04;;;;;;;31.10;5.22;;;;;;;;;;5007585;28;20464;-73
2022/01/09 04:45:30;;;;;;;40.53;4.38;;;;;;;;;;4999347;28;20040;-72
2022/01/09 04:48:01;;;;;;;28.13;2.78;;;;;;;;;;5001592;28;20030;-72
2022/01/09 04:50:30;;;;;;;30.42;3.63;;;;;;;;;;5003000;28;20018;-72
2022/01/09 04:53:04;;;;;;;25.38;4.13;;;;;;;;;;5002231;28;20026;-72
2022/01/09 04:55:31;;;;;;;23.55;3.47;;;;;;;;;;5002228;28;20120;-72
2022/01/09 04:57:57;;;;;;;45.03;4.57;;;;;;;;;;5004462;28;20042;-72
2022/01/09 05:00:23;;;;;;;51.35;12.38;;;;;;;;;;4997511;28;20034;-73
2022/01/09 05:02:49;;;;;;;27.60;4.75;;;;;;;;;;5001075;28;20410;-72
2022/01/09 05:05:16;;;;;;;22.17;2.45;;;;;;;;;;4996500;28;20050;-72
2022/01/09 05:07:42;;;;;;;27.05;3.95;;;;;;;;;;5003261;28;20038;-71
2022/01/09 05:10:09;;;;;;;40.20;4.07;;;;;;;;;;4995998;28;20077;-71
2022/01/09 05:12:35;;;;;;;22.85;3.28;;;;;;;;;;5001674;28;20030;-72
2022/01/09 05:15:02;;;;;;;18.50;2.53;;;;;;;;;;4998682;28;20034;-71
2022/01/09 05:17:28;;;;;;;17.20;2.15;;;;;;;;;;5002967;28;20483;-71
2022/01/09 05:19:57;;;;;;;29.30;3.08;;;;;;;;;;5008407;28;20053;-72
2022/01/09 05:22:24;;;;;;;28.42;4.43;;;;;;;;;;4985602;28;20411;-72
2022/01/09 05:24:51;;;;;;;34.10;3.95;;;;;;;;;;5009087;28;20120;-72
2022/01/09 05:27:17;;;;;;;34.35;4.47;;;;;;;;;;4969285;28;20419;-73
2022/01/09 05:29:43;;;;;;;37.80;3.65;;;;;;;;;;4997529;28;20034;-72
2022/01/09 05:32:09;;;;;;;30.42;3.63;;;;;;;;;;5002403;28;20116;-72
2022/01/09 05:34:35;;;;;;;26.08;3.97;;;;;;;;;;4991677;28;20068;-72
2022/01/09 05:37:01;;;;;;;38.03;5.65;;;;;;;;;;5002297;28;20422;-72
2022/01/09 05:39:27;;;;;;;30.77;5.72;;;;;;;;;;5005294;28;20639;-72
2022/01/09 05:41:53;;;;;;;39.55;4.85;;;;;;;;;;5000558;28;20109;-72
2022/01/09 05:44:20;;;;;;;39.45;4.13;;;;;;;;;;4996454;28;20160;-72
2022/01/09 05:46:46;;;;;;;29.60;3.78;;;;;;;;;;5003971;28;20095;-72
2022/01/09 05:49:13;;;;;;;30.95;3.88;;;;;;;;;;5005995;28;20034;-72
2022/01/09 05:51:39;;;;;;;24.92;3.80;;;;;;;;;;4993278;28;20026;-73
2022/01/09 05:54:05;;;;;;;34.88;3.90;;;;;;;;;;4983824;28;20065;-73
2022/01/09 05:56:31;;;;;;;33.83;4.32;;;;;;;;;;4981128;28;20048;-73
2022/01/09 05:58:57;;;;;;;26.05;4.07;;;;;;;;;;4999110;28;20042;-74
2022/01/09 06:01:23;;;;;;;36.45;5.05;;;;;;;;;;4982603;28;20046;-74
2022/01/09 06:03:49;;;;;;;36.42;3.50;;;;;;;;;;5002693;28;20038;-73
2022/01/09 06:06:15;;;;;;;39.03;3.80;;;;;;;;;;5003121;28;20076;-73
2022/01/09 06:08:41;;;;;;;24.38;2.58;;;;;;;;;;5001478;28;20034;-75
2022/01/09 06:11:07;;;;;;;24.30;3.28;;;;;;;;;;4996839;28;20097;-75
2022/01/09 06:13:33;;;;;;;18.90;3.55;;;;;;;;;;5001502;28;20496;-75
2022/01/09 06:15:59;;;;;;;20.15;2.63;;;;;;;;;;5002391;28;20038;-74
2022/01/09 06:18:25;;;;;;;19.75;3.00;;;;;;;;;;4987090;28;20065;-74
2022/01/09 06:20:51;;;;;;;23.42;2.80;;;;;;;;;;4999385;28;22616;-73
2022/01/09 06:23:20;;;;;;;24.05;3.05;;;;;;;;;;4999909;28;20022;-73
2022/01/09 06:25:49;;;;;;;15.77;2.08;;;;;;;;;;5004202;28;20471;-74
2022/01/09 06:28:15;;;;;;;25.27;3.28;;;;;;;;;;4998136;28;20042;-73
2022/01/09 06:30:41;;;;;;;25.45;3.58;;;;;;;;;;5002587;28;20064;-74
2022/01/09 06:33:08;;;;;;;30.90;2.97;;;;;;;;;;5000870;28;20388;-74
2022/01/09 06:35:34;;;;;;;19.30;2.78;;;;;;;;;;4998514;28;20133;-74
2022/01/09 06:38:00;;;;;;;30.13;4.70;;;;;;;;;;5002012;28;20034;-74
2022/01/09 06:40:26;;;;;;;20.30;3.53;;;;;;;;;;4992121;28;20041;-74
2022/01/09 06:42:52;;;;;;;25.45;4.80;;;;;;;;;;5004344;28;20104;-74
2022/01/09 06:45:18;;;;;;;19.17;3.33;;;;;;;;;;5011838;28;20084;-73
2022/01/09 06:47:44;;;;;;;23.27;3.47;;;;;;;;;;5002303;28;20522;-74
2022/01/09 06:50:10;;;;;;;28.95;5.00;;;;;;;;;;5006990;28;20073;-74
2022/01/09 06:52:37;;;;;;;23.25;2.38;;;;;;;;;;5006859;28;20068;-74
2022/01/09 06:55:03;;;;;;;18.38;2.70;;;;;;;;;;5005603;28;20041;-74
2022/01/09 06:57:29;;;;;;;29.15;2.78;;;;;;;;;;5004750;28;20065;-74
2022/01/09 06:59:55;;;;;;;24.33;2.70;;;;;;;;;;5006003;28;20061;-74
2022/01/09 07:02:21;;;;;;;17.65;3.22;;;;;;;;;;5005673;28;20180;-74
2022/01/09 07:04:47;;;;;;;21.45;3.15;;;;;;;;;;4984502;28;20551;-74
2022/01/09 07:07:13;;;;;;;14.70;2.95;;;;;;;;;;4992742;28;20065;-74
2022/01/09 07:09:39;;;;;;;26.00;3.15;;;;;;;;;;5004426;28;20084;-74
2022/01/09 07:12:07;;;;;;;28.85;2.60;;;;;;;;;;5006927;28;20196;-74
2022/01/09 07:14:33;;;;;;;28.35;3.22;;;;;;;;;;5002086;28;20038;-74
2022/01/09 07:16:59;;;;;;;21.08;2.25;;;;;;;;;;5003291;28;20046;-74
2022/01/09 07:19:25;;;;;;;19.38;2.65;;;;;;;;;;5009240;28;20041;-75
2022/01/09 07:21:51;;;;;;;28.10;3.33;;;;;;;;;;4982959;28;20392;-74
2022/01/09 07:24:17;;;;;;;20.13;3.75;;;;;;;;;;4985963;28;20030;-74
2022/01/09 07:26:43;;;;;;;24.25;6.43;;;;;;;;;;4987199;28;20034;-74
2022/01/09 07:29:09;;;;;;;23.92;4.18;;;;;;;;;;5006095;28;20097;-74
2022/01/09 07:31:35;;;;;;;18.45;4.57;;;;;;;;;;4984246;28;20053;-74
2022/01/09 07:34:01;;;;;;;16.77;2.80;;;;;;;;;;5003986;28;20025;-74
2022/01/09 07:36:27;;;;;;;16.58;2.35;;;;;;;;;;5007612;28;20489;-74
2022/01/09 07:38:53;;;;;;;14.52;2.05;;;;;;;;;;4988077;28;20061;-75
2022/01/09 07:41:20;;;;;;;18.92;2.35;;;;;;;;;;5006076;28;20588;-75
2022/01/09 07:43:47;;;;;;;17.35;2.22;;;;;;;;;;5001923;28;20025;-75
2022/01/09 07:46:13;;;;;;;10.13;2.05;;;;;;;;;;5004603;28;20495;-75
2022/01/09 07:48:39;;;;;;;23.80;2.45;;;;;;;;;;5003242;28;20036;-74
2022/01/09 07:51:05;;;;;;;14.60;2.53;;;;;;;;;;4999965;28;20085;-74
2022/01/09 07:53:31;;;;;;;13.75;2.15;;;;;;;;;;5001910;28;20459;-72
2022/01/09 07:55:57;;;;;;;22.30;2.20;;;;;;;;;;4985303;28;20038;-73
2022/01/09 07:58:23;;;;;;;20.33;4.70;;;;;;;;;;5005923;28;20040;-73
2022/01/09 08:00:49;;;;;;;9.25;2.03;;;;;;;;;;5004022;28;20120;-72
2022/01/09 08:03:15;;;;;;;15.70;2.08;;;;;;;;;;4986772;28;20548;-72
2022/01/09 08:05:41;;;;;;;19.45;2.78;;;;;;;;;;5004093;28;20120;-73
2022/01/09 08:08:07;;;;;;;14.85;2.63;;;;;;;;;;5001069;28;20448;-73
2022/01/09 08:10:34;;;;;;;18.98;3.47;;;;;;;;;;5007810;28;20041;-76
2022/01/09 08:13:00;;;;;;;24.15;4.80;;;;;;;;;;5003123;28;20030;-73
2022/01/09 08:15:29;;;;;;;13.93;2.67;;;;;;;;;;5006946;28;20057;-73
2022/01/09 08:17:56;;;;;;;20.70;4.07;;;;;;;;;;5003425;28;20049;-73
2022/01/09 08:20:23;;;;;;;17.90;2.60;;;;;;;;;;5004670;28;20030;-73
2022/01/09 08:22:49;;;;;;;20.83;3.28;;;;;;;;;;5003428;28;20034;-73
2022/01/09 08:25:16;;;;;;;19.30;3.22;;;;;;;;;;5000678;28;20034;-74
2022/01/09 08:27:43;;;;;;;27.88;4.88;;;;;;;;;;5001958;28;20031;-73
2022/01/09 08:30:10;;;;;;;28.48;6.95;;;;;;;;;;5005751;28;20125;-73
2022/01/09 08:32:36;;;;;;;27.08;4.50;;;;;;;;;;5003448;28;20037;-72
2022/01/09 08:35:03;;;;;;;28.75;7.18;;;;;;;;;;4987907;28;20117;-72
2022/01/09 08:37:29;;;;;;;16.33;2.83;;;;;;;;;;5005592;28;20053;-72
2022/01/09 08:39:55;;;;;;;19.60;3.25;;;;;;;;;;5004903;28;20042;-72
2022/01/09 08:42:21;;;;;;;18.85;3.17;;;;;;;;;;5005517;28;20077;-73
2022/01/09 08:44:47;;;;;;;15.88;2.58;;;;;;;;;;5004293;28;20507;-73
2022/01/09 08:47:13;;;;;;;15.23;2.67;;;;;;;;;;5002211;28;20119;-72
2022/01/09 08:49:39;;;;;;;18.30;2.80;;;;;;;;;;5003502;28;20022;-73
2022/01/09 08:52:06;;;;;;;19.63;2.28;;;;;;;;;;5003426;28;20105;-73
2022/01/09 08:54:32;;;;;;;19.90;1.88;;;;;;;;;;5004636;28;20033;-73
2022/01/09 08:56:58;;;;;;;12.18;2.03;;;;;;;;;;5004788;28;20030;-73
2022/01/09 08:59:26;;;;;;;16.75;2.20;;;;;;;;;;5003200;28;20030;-73
2022/01/09 09:01:52;;;;;;;13.35;1.63;;;;;;;;;;5004314;28;20107;-74
2022/01/09 09:04:18;;;;;;;8.90;1.73;;;;;;;;;;5002540;28;20037;-75
2022/01/09 09:06:44;;;;;;;12.02;3.88;;;;;;;;;;5004051;28;20041;-75
2022/01/09 09:09:10;;;;;;;7.43;1.05;;;;;;;;;;4986533;28;20036;-74
2022/01/09 09:11:36;;;;;;;10.38;1.80;;;;;;;;;;4984733;28;20035;-74
2022/01/09 09:14:03;;;;;;;8.43;1.30;;;;;;;;;;4997585;28;20125;-74
2022/01/09 09:16:30;;;;;;;5.70;1.10;;;;;;;;;;5003767;28;20042;-74
2022/01/09 09:18:56;;;;;;;12.57;2.20;;;;;;;;;;5003485;28;20117;-73
2022/01/09 09:21:22;;;;;;;11.35;1.80;;;;;;;;;;4994632;28;20142;-73
2022/01/09 09:23:48;;;;;;;9.02;1.83;;;;;;;;;;5000549;28;20037;-73
2022/01/09 09:26:16;;;;;;;20.30;4.38;;;;;;;;;;4987468;28;20487;-73
2022/01/09 09:28:42;;;;;;;13.88;2.92;;;;;;;;;;5000207;28;20061;-73
2022/01/09 09:31:09;;;;;;;18.27;2.00;;;;;;;;;;5003566;28;20030;-73
2022/01/09 09:33:35;;;;;;;12.20;2.15;;;;;;;;;;5003515;28;20041;-73
2022/01/09 09:36:02;;;;;;;10.98;1.50;;;;;;;;;;5002581;28;20065;-74
2022/01/09 09:38:29;;;;;;;8.68;1.38;;;;;;;;;;4983898;28;20435;-74
2022/01/09 09:40:55;;;;;;;11.05;1.23;;;;;;;;;;5001474;28;20085;-74
2022/01/09 09:43:21;;;;;;;7.75;1.10;;;;;;;;;;5005212;28;20112;-74
2022/01/09 09:45:47;;;;;;;8.30;1.00;;;;;;;;;;5003873;28;20447;-74
2022/01/09 09:48:13;;;;;;;7.28;1.00;;;;;;;;;;5001663;28;20463;-74
2022/01/09 09:50:39;;;;;;;7.80;1.13;;;;;;;;;;4983049;28;20041;-74
2022/01/09 09:53:05;;;;;;;7.45;1.60;;;;;;;;;;5001031;28;20037;-74
2022/01/09 09:55:31;;;;;;;7.63;0.82;;;;;;;;;;5001495;28;20037;-74
2022/01/09 09:57:57;;;;;;;9.70;1.20;;;;;;;;;;5001419;28;20535;-74
2022/01/09 10:00:24;;;;;;;16.08;1.48;;;;;;;;;;4998462;28;20117;-73
2022/01/09 10:02:54;;;;;;;7.55;2.30;;;;;;;;;;5006362;28;20034;-73
2022/01/09 10:05:24;;;;;;;13.52;1.48;;;;;;;;;;5001239;28;20040;-74
2022/01/09 10:07:54;;;;;;;24.90;3.70;;;;;;;;;;5003472;28;20026;-75
2022/01/09 10:10:21;;;;;;;14.43;2.40;;;;;;;;;;4986537;28;20056;-74
2022/01/09 10:12:48;;;;;;;17.50;3.45;;;;;;;;;;5000718;28;20080;-74
2022/01/09 10:15:20;;;;;;;13.27;2.90;;;;;;;;;;5000309;28;20061;-73
2022/01/09 10:17:48;;;;;;;17.42;2.88;;;;;;;;;;5001619;28;20125;-74
2022/01/09 10:20:18;;;;;;;9.75;1.50;;;;;;;;;;5000725;28;20030;-74
2022/01/09 10:22:46;;;;;;;17.45;1.88;;;;;;;;;;5003840;28;20046;-73
2022/01/09 10:25:30;;;;;;;8.30;1.45;;;;;;;;;;5002304;28;20037;-72
2022/01/09 10:27:58;;;;;;;13.90;1.98;;;;;;;;;;5001032;28;20034;-73
2022/01/09 10:30:26;;;;;;;12.73;2.33;;;;;;;;;;5002390;28;20391;-73
2022/01/09 10:33:15;;;;;;;13.25;3.15;;;;;;;;;;4999679;28;20025;-73
2022/01/09 10:35:43;;;;;;;16.90;2.08;;;;;;;;;;4991854;28;20121;-73
2022/01/09 10:38:15;;;;;;;13.50;2.58;;;;;;;;;;5006747;28;20033;-74
2022/01/09 10:40:42;;;;;;;;;;;7.70;99.90;;;;;;5001670;28;20132;-74
2022/01/09 10:43:34;;;;;;;13.57;2.38;;;;;;;;;;5003100;28;19913;-73
2022/01/09 10:46:01;;;;;;;22.03;2.80;;;;;;;;;;4996963;28;20747;-74
2022/01/09 10:48:33;;;;;;;19.42;2.10;;;;;;;;;;4999846;28;20671;-73
2022/01/09 10:50:59;;;;;;;18.52;2.40;;;;;;;;;;5005209;28;20026;-74
2022/01/09 10:53:27;;;;;;;10.52;2.13;;;;;;;;;;4999088;28;20606;-74
2022/01/09 10:56:12;;;;;;;11.90;1.92;;;;;;;;;;5003003;28;20109;-75
2022/01/09 10:58:44;;;;;;;13.45;2.10;;;;;;;;;;4999364;28;20049;-75
2022/01/09 11:01:10;;;;;;;14.93;2.55;;;;;;;;;;5005808;28;20431;-76
2022/01/09 11:03:36;;;;;;;13.32;2.15;;;;;;;;;;4999059;28;20042;-76
2022/01/09 11:06:03;;;;;;;11.93;1.88;;;;;;;;;;4970386;28;20038;-76
2022/01/09 11:08:30;;;;;;;13.32;1.60;;;;;;;;;;5003221;28;20038;-75
2022/01/09 11:10:56;;;;;;;8.18;2.17;;;;;;;;;;4999012;28;20022;-74
2022/01/09 11:13:24;;;;;;;9.98;1.65;;;;;;;;;;5000031;28;20062;-75
2022/01/09 11:18:35;;;;;;;11.68;1.70;;;;;;;;;;5000719;28;20122;-74
2022/01/09 11:21:01;;;;;;;9.43;1.48;;;;;;;;;;4999958;28;20072;-75
2022/01/09 11:23:34;;;;;;;10.18;2.30;;;;;;;;;;5001904;28;20091;-76
2022/01/09 11:26:02;;;;;;;10.77;1.75;;;;;;;;;;5004224;28;20065;-74
2022/01/09 11:28:33;;;;;;;12.45;2.67;;;;;;;;;;5004100;28;20042;-75
2022/01/09 11:31:09;;;;;;;11.43;2.33;;;;;;;;;;5004687;28;20026;-75
2022/01/09 11:33:44;;;;;;;10.48;2.15;;;;;;;;;;5004910;28;20487;-75
2022/01/09 11:36:10;;;;;;;7.57;1.67;;;;;;;;;;5002055;28;20038;-75
2022/01/09 11:38:41;;;;;;;5.60;1.63;;;;;;;;;;5005099;28;20033;-76
2022/01/09 11:41:17;;;;;;;13.52;1.80;;;;;;;;;;5002553;28;20065;-75
2022/01/09 11:43:55;;;;;;;10.90;1.73;;;;;;;;;;5004395;28;20025;-74
2022/01/09 11:46:22;;;;;;;14.95;2.45;;;;;;;;;;5005329;28;20033;-75
2022/01/09 11:48:51;;;;;;;9.93;2.90;;;;;;;;;;5001609;28;20049;-74
2022/01/09 11:51:18;;;;;;;7.70;1.35;;;;;;;;;;5007578;28;20232;-73
2022/01/09 11:53:59;;;;;;;8.65;1.80;;;;;;;;;;5003613;28;20550;-75
2022/01/09 11:56:44;;;;;;;11.77;1.40;;;;;;;;;;5003167;28;20093;-74
2022/01/09 11:59:20;;;;;;;11.82;1.58;;;;;;;;;;5004370;28;20106;-74
2022/01/09 12:01:47;;;;;;;6.68;1.70;;;;;;;;;;5000705;28;20113;-74
2022/01/09 12:04:34;;;;;;;10.18;1.40;;;;;;;;;;5004857;28;20046;-74
2022/01/09 12:07:04;;;;;;;9.70;1.63;;;;;;;;;;5001708;28;20034;-73
2022/01/09 12:09:36;;;;;;;13.02;1.88;;;;;;;;;;5007484;28;20130;-74
2022/01/09 12:12:08;;;;;;;8.85;1.83;;;;;;;;;;5000041;28;20026;-74
2022/01/09 12:14:56;;;;;;;5.82;1.50;;;;;;;;;;5006850;28;20025;-74
2022/01/09 12:17:22;;;;;;;7.22;1.25;;;;;;;;;;5005054;28;20045;-74
2022/01/09 12:20:14;;;;;;;11.30;1.95;;;8.10;99.90;;;;;;4999058;28;20116;-73
2022/01/09 12:22:47;;;;;;;12.17;1.60;;;;;;;;;;4975174;28;20046;-74
2022/01/09 12:25:25;;;;;;;8.57;2.00;;;;;;;;;;5003176;28;20025;-74
2022/01/09 12:28:11;;;;;;;15.77;2.40;;;;;;;;;;5003616;28;20042;-76
2022/01/09 12:30:44;;;;;;;7.15;1.30;;;;;;;;;;4986808;28;20037;-74
2022/01/09 12:33:22;;;;;;;5.03;0.68;;;;;;;;;;5003894;28;20105;-74
2022/01/09 12:35:56;;;;;;;6.68;0.93;;;;;;;;;;4998599;28;20043;-74
2022/01/09 12:38:23;;;;;;;9.80;0.88;;;;;;;;;;5001124;28;20073;-74
2022/01/09 12:40:55;;;;;;;11.38;0.80;;;;;;;;;;5001742;28;20042;-75
2022/01/09 12:43:22;;;;;;;9.15;1.60;;;;;;;;;;4984541;28;20467;-76
2022/01/09 12:45:49;;;;;;;5.75;1.33;;;;;;;;;;5008059;28;20053;-74
2022/01/09 12:48:21;;;;;;;10.38;0.80;;;;;;;;;;4998095;28;20030;-75
2022/01/09 12:50:48;;;;;;;5.88;0.55;;;;;;;;;;5005061;28;20038;-76
2022/01/09 12:53:15;;;;;;;3.53;0.52;;;;;;;;;;5001130;28;20037;-75
2022/01/09 12:56:00;;;;;;;2.97;0.50;;;;;;;;;;5006455;28;20026;-75
2022/01/09 12:58:30;;;;;;;3.67;0.50;;;;;;;;;;5000404;28;20034;-74
2022/01/09 13:00:56;;;;;;;4.70;0.55;;;;;;;;;;5003242;28;20034;-76
2022/01/09 13:03:24;;;;;;;11.10;3.58;;;;;;;;;;5002975;28;20109;-75
2022/01/09 13:05:57;;;;;;;12.10;5.57;;;;;;;;;;4998405;28;20121;-75
2022/01/09 13:08:24;;;;;;;7.57;2.60;;;;;;;;;;5000880;28;20506;-75
2022/01/09 13:10:57;;;;;;;9.23;2.55;;;;;;;;;;5003390;28;20419;-75
2022/01/09 13:13:24;;;;;;;8.45;3.28;;;;;;;;;;4969181;28;20085;-75
2022/01/09 13:15:50;;;;;;;14.38;3.60;;;;;;;;;;4974224;28;20392;-75
2022/01/09 13:18:17;;;;;;;19.52;4.65;;;;;;;;;;5002317;28;20033;-75
2022/01/09 13:20:43;;;;;;;25.45;7.82;;;;;;;;;;4999753;28;20026;-75
2022/01/09 13:23:10;;;;;;;11.60;3.10;;;;;;;;;;5002930;28;20037;-75
2022/01/09 13:25:43;;;;;;;8.13;1.83;;;;;;;;;;5003426;28;20114;-75
2022/01/09 13:28:23;;;;;;;4.65;0.90;;;;;;;;;;5001845;28;20383;-75
2022/01/09 13:30:49;;;;;;;9.55;1.10;;;;;;;;;;4985675;28;20145;-75
2022/01/09 13:33:15;;;;;;;9.45;1.73;;;;;;;;;;5002216;28;20061;-75
2022/01/09 13:35:42;;;;;;;33.17;15.15;;;;;;;;;;4986242;28;20030;-76
2022/01/09 13:38:08;;;;;;;13.93;6.15;;;;;;;;;;4983013;28;20038;-75
2022/01/09 13:40:34;;;;;;;11.90;1.52;;;;;;;;;;5002537;28;20030;-75
2022/01/09 13:43:01;;;;;;;8.80;1.33;;;;;;;;;;5003751;28;20422;-74
2022/01/09 13:45:27;;;;;;;3.13;0.60;;;;;;;;;;5003028;28;20568;-74
2022/01/09 13:47:56;;;;;;;6.18;1.00;;;;;;;;;;4984205;28;20104;-74
2022/01/09 13:50:23;;;;;;;8.10;2.00;;;;;;;;;;5001917;28;20080;-74
2022/01/09 13:52:50;;;;;;;8.02;1.27;;;;;;;;;;5002981;28;20038;-74
2022/01/09 13:55:23;;;;;;;15.43;1.73;;;;;;;;;;5002364;28;20950;-74
2022/01/09 13:57:50;;;;;;;6.22;1.55;;;;;;;;;;5001955;28;20045;-74
2022/01/09 14:00:16;;;;;;;10.35;2.50;;;;;;;;;;4998459;28;20042;-74
2022/01/09 14:02:43;;;;;;;6.65;2.30;;;;;;;;;;5001539;28;20033;-74
2022/01/09 14:05:13;;;;;;;12.77;2.15;;;;;;;;;;4983521;28;20030;-76
2022/01/09 14:07:40;;;;;;;8.43;1.45;;;;;;;;;;4999508;28;20488;-76
2022/01/09 14:10:07;;;;;;;7.47;1.73;;;;;;;;;;5006797;28;20061;-76
2022/01/09 14:12:37;;;;;;;12.20;1.50;;;;;;;;;;5000526;28;20038;-75
2022/01/09 14:15:13;;;;;;;8.80;1.58;;;;;;;;;;4986959;28;20025;-75
2022/01/09 14:17:44;;;;;;;11.90;2.78;;;;;;;;;;4998337;28;20483;-75
2022/01/09 14:20:16;;;;;;;9.73;2.88;;;;;;;;;;5001629;28;20052;-76
2022/01/09 14:22:43;;;;;;;14.02;3.85;;;;;;;;;;5001781;28;20041;-75
2022/01/09 14:25:14;;;;;;;11.18;2.30;;;;;;;;;;5000099;28;20069;-75
2022/01/09 14:27:44;;;;;;;16.15;3.08;;;;;;;;;;5003071;28;20491;-75
2022/01/09 14:30:24;;;;;;;10.20;2.20;;;;;;;;;;5002166;28;20500;-75
2022/01/09 14:33:05;;;;;;;8.77;2.65;;;;;;;;;;4989097;28;20117;-75
2022/01/09 14:35:33;;;;;;;18.40;2.13;;;;;;;;;;4998591;28;20120;-75
2022/01/09 14:38:00;;;;;;;10.35;1.60;;;;;;;;;;5001997;28;20081;-75
2022/01/09 14:40:26;;;;;;;10.43;2.08;;;;;;;;;;5002166;28;20026;-75